Time;durP1;ratioP1;P1;durP2;ratioP2;P2;SDS_P1;SDS_P2;PMS_P1;PMS_P2;Temp;Humidity;BMP_temperature;BMP_pressure;BME280_temperature;BME280_humidity;BME280_pressure;Samples;Min_cycle;Max_cycle;Signal;HPM_P1;HPM_P2
2023/05/03 00:01:07;;;;;;;6.30;2.45;;;;;;;6.38;86.29;103029.84;5074151;28;20093;-71
2023/05/03 00:03:33;;;;;;;9.88;3.10;;;;;;;6.31;87.08;103032.16;5100995;28;20463;-71
2023/05/03 00:06:14;;;;;;;7.85;2.97;;;;;;;6.34;87.22;103050.13;5099418;28;20080;-71
2023/05/03 00:08:40;;;;;;;8.55;3.05;;;;;;;6.30;86.80;103044.03;5101157;28;20036;-71
2023/05/03 00:11:06;;;;;;;8.52;3.50;;;;;;;6.29;86.80;103044.16;5099252;28;20913;-70
2023/05/03 00:13:31;;;;;;;6.45;2.90;;;;;;;6.32;87.06;103038.50;5082853;28;20040;-71
2023/05/03 00:15:56;;;;;;;6.57;3.28;;;;;;;6.29;86.85;103038.72;5102262;28;20081;-71
2023/05/03 00:18:22;;;;;;;5.38;3.10;;;;;;;6.32;87.11;103033.03;5099143;28;20031;-71
2023/05/03 00:20:53;;;;;;;9.95;2.97;;;;;;;6.29;87.19;103038.72;5082274;28;20035;-71
2023/05/03 00:23:19;;;;;;;9.27;3.65;;;;;;;6.31;87.91;103034.88;5099680;28;20470;-71
2023/05/03 00:25:44;;;;;;;9.27;3.47;;;;;;;6.30;87.63;103040.47;5099797;28;20036;-71
2023/05/03 00:28:09;;;;;;;7.47;3.80;;;;;;;6.26;86.84;103031.63;5102639;28;20032;-72
2023/05/03 00:30:35;;;;;;;10.73;3.10;;;;;;;6.20;88.16;103034.84;5094540;28;20122;-71
2023/05/03 00:33:00;;;;;;;9.40;3.33;;;;;;;6.23;87.17;103033.72;5098326;28;20099;-72
2023/05/03 00:35:26;;;;;;;9.80;3.08;;;;;;;6.22;87.59;103026.56;5082607;28;20139;-72
2023/05/03 00:37:52;;;;;;;4.85;2.60;;;;;;;6.20;88.19;103021.22;5096301;28;20042;-70
2023/05/03 00:40:17;;;;;;;8.50;3.97;;;;;;;6.19;88.12;103024.09;5102174;28;20121;-71
2023/05/03 00:42:45;;;;;;;10.07;3.58;;;;;;;6.22;87.80;103026.56;5100361;28;20024;-71
2023/05/03 00:45:10;;;;;;;10.10;3.13;;;;;;;6.16;88.34;103022.47;5077148;28;20028;-70
2023/05/03 00:47:36;;;;;;;4.32;2.90;;;;;;;6.13;89.20;103029.97;5099337;28;20024;-70
2023/05/03 00:50:02;;;;;;;7.60;3.05;;;;;;;6.15;88.94;103028.00;5099169;28;20069;-70
2023/05/03 00:52:28;;;;;;;12.10;3.70;;;;;;;6.13;89.19;103032.69;5082733;28;20036;-70
2023/05/03 00:54:56;;;;;;;7.88;3.58;;;;;;;6.10;88.79;103027.50;5083014;28;20122;-70
2023/05/03 00:57:22;;;;;;;4.25;3.50;;;;;;;6.10;89.20;103027.50;5101299;28;20035;-70
2023/05/03 00:59:49;;;;;;;9.05;3.72;;;;;;;6.10;89.45;103033.78;5097632;28;20115;-71
2023/05/03 01:02:14;;;;;;;10.23;3.53;;;;;;;6.13;89.20;103032.69;5091044;28;20028;-70
2023/05/03 01:04:41;;;;;;;5.45;3.50;;;;;;;6.13;89.66;103033.56;5098499;28;20027;-69
2023/05/03 01:07:39;;;;;;;7.72;3.70;;;;;;;6.14;89.18;103029.00;5099594;28;20504;-69
2023/05/03 01:10:38;;;;;;;7.03;3.58;;;;;;;6.16;89.10;103038.78;5081411;28;20042;-70
2023/05/03 01:13:33;;;;;;;8.65;3.25;;;;;;;6.16;89.80;103027.91;5083534;28;20031;-70
2023/05/03 01:16:03;;;;;;;6.50;2.70;;;;;;;6.13;88.88;103029.97;5090818;28;20032;-70
2023/05/03 01:18:31;;;;;;;10.00;3.53;;;;;;;6.13;89.62;103033.56;5076295;28;20499;-69
2023/05/03 01:20:59;;;;;;;10.25;2.75;;;;;;;6.12;89.44;103036.41;5080139;28;20479;-69
2023/05/03 01:23:48;;;;;;;12.80;4.43;;;;;;;6.09;89.93;103042.94;5079939;28;20397;-70
2023/05/03 01:26:24;;;;;;;4.93;3.33;;;;;;;6.12;89.69;103031.84;5075325;28;20091;-69
2023/05/03 01:28:50;;;;;;;5.55;3.20;;;;;;;6.08;89.98;103034.91;5079082;28;20107;-70
2023/05/03 01:31:33;;;;;;;12.13;3.47;;;;;;;6.08;89.38;103040.34;5101084;28;20032;-70
2023/05/03 01:34:41;;;;;;;15.68;3.72;;;;;;;6.03;89.76;103031.66;5095282;28;20028;-70
2023/05/03 01:37:09;;;;;;;9.77;3.33;;;;;;;5.98;89.89;103028.41;5100288;28;20493;-69
2023/05/03 01:39:39;;;;;;;7.95;3.28;;;;;;;5.96;90.53;103030.38;5077239;28;20390;-70
2023/05/03 01:42:05;;;;;;;6.65;3.13;;;;;;;5.92;91.13;103026.16;5097383;28;20120;-70
2023/05/03 01:44:32;;;;;;;7.10;3.13;;;;;;;5.96;91.11;103027.66;5079915;28;20487;-70
2023/05/03 01:46:58;;;;;;;8.40;3.17;;;;;;;5.93;91.26;103031.47;5087111;28;20023;-69
2023/05/03 01:49:23;;;;;;;9.50;3.53;;;;;;;5.88;90.53;103030.09;5099992;28;20428;-69
2023/05/03 01:51:49;;;;;;;5.55;3.00;;;;;;;5.80;91.28;103035.19;5078034;28;20031;-70
2023/05/03 01:54:15;;;;;;;5.82;3.38;;;;;;;5.80;92.09;103018.88;5093870;28;20392;-69
2023/05/03 01:56:40;;;;;;;13.23;3.78;;;;;;;5.79;92.27;103011.69;5095266;28;20407;-69
2023/05/03 01:59:06;;;;;;;9.07;3.63;;;;;;;5.74;92.29;103006.59;5079801;28;20032;-70
2023/05/03 02:01:31;;;;;;;7.43;3.65;;;;;;;5.74;92.90;103008.44;5102338;28;20118;-70
2023/05/03 02:03:57;;;;;;;10.13;3.60;;;;;;;5.75;92.54;103000.16;5067958;28;20035;-70
2023/05/03 02:06:24;;;;;;;10.25;3.60;;;;;;;5.73;93.46;102995.81;5098331;28;20048;-70
2023/05/03 02:08:49;;;;;;;7.75;3.50;;;;;;;5.69;92.11;102978.88;5103849;28;20024;-69
2023/05/03 02:11:14;;;;;;;10.35;3.50;;;;;;;5.70;92.67;102979.72;5083128;28;20571;-70
2023/05/03 02:13:40;;;;;;;9.13;3.25;;;;;;;5.66;91.88;102967.38;5105359;28;20029;-70
2023/05/03 02:16:06;;;;;;;9.70;3.45;;;;;;;5.67;92.28;102967.22;5099043;28;20390;-69
2023/05/03 02:18:32;;;;;;;7.13;3.30;;;;;;;5.66;91.76;102956.50;5105122;28;20034;-70
2023/05/03 02:20:57;;;;;;;9.38;3.88;;;;;;;5.69;92.48;102956.25;5096965;28;20024;-69
2023/05/03 02:23:23;;;;;;;20.35;4.70;;;;;;;5.65;92.17;102950.19;5104245;28;20398;-69
2023/05/03 02:25:48;;;;;;;13.10;3.80;;;;;;;5.68;92.40;102960.84;5097011;28;20028;-70
2023/05/03 02:28:14;;;;;;;10.35;3.65;;;;;;;5.66;92.79;102965.50;5100349;28;20390;-69
2023/05/03 02:30:40;;;;;;;9.40;3.92;;;;;;;5.66;92.45;102972.81;5098015;28;20548;-69
2023/05/03 02:33:06;;;;;;;9.20;3.03;;;;;;;5.64;92.53;102975.63;5085656;28;20423;-70
2023/05/03 02:35:31;;;;;;;7.90;3.83;;;;;;;5.64;92.02;102978.34;5104583;28;20020;-69
2023/05/03 02:37:57;;;;;;;12.93;4.15;;;;;;;5.60;92.52;102981.41;5098059;28;20069;-69
2023/05/03 02:40:22;;;;;;;13.60;3.78;;;;;;;5.61;93.16;102988.59;5081332;28;20028;-70
2023/05/03 02:42:47;;;;;;;16.08;3.42;;;;;;;5.65;92.24;102990.06;5102412;28;20382;-70
2023/05/03 02:45:13;;;;;;;6.90;3.38;;;;;;;5.64;92.07;102991.94;5101464;28;20052;-71
2023/05/03 02:47:39;;;;;;;8.35;3.30;;;;;;;5.59;91.54;102999.56;5095909;28;20023;-70
2023/05/03 02:50:05;;;;;;;12.70;4.10;;;;;;;5.59;92.25;103007.72;5102457;28;20019;-70
2023/05/03 02:52:31;;;;;;;5.78;3.20;;;;;;;5.56;91.52;103018.81;5102292;28;20040;-70
2023/05/03 02:54:56;;;;;;;8.48;3.53;;;;;;;5.60;91.76;102998.59;5101401;28;20031;-70
2023/05/03 02:57:22;;;;;;;10.00;3.95;;;;;;;5.64;91.33;102996.50;5103710;28;20313;-71
2023/05/03 02:59:47;;;;;;;8.57;3.70;;;;;;;5.60;92.15;103009.44;5081729;28;20019;-70
2023/05/03 03:02:13;;;;;;;11.95;3.72;;;;;;;5.57;91.62;103009.69;5097942;28;20023;-70
2023/05/03 03:04:38;;;;;;;14.65;3.25;;;;;;;5.52;92.02;103002.84;5085177;28;20400;-70
2023/05/03 03:07:04;;;;;;;6.75;3.55;;;;;;;5.49;92.42;103006.66;5082730;28;20052;-70
2023/05/03 03:09:29;;;;;;;7.13;3.28;;;;;;;5.48;92.86;103004.03;5082195;28;20019;-70
2023/05/03 03:11:55;;;;;;;13.57;3.38;;;;;;;5.45;92.00;102994.25;5100852;28;20034;-70
2023/05/03 03:14:20;;;;;;;9.48;3.40;;;;;;;5.41;92.03;102995.50;5101575;28;20117;-70
2023/05/03 03:16:45;;;;;;;7.75;3.80;;;;;;;5.43;92.53;103000.78;5101236;28;20128;-70
2023/05/03 03:19:11;;;;;;;8.10;2.60;;;;;;;5.44;91.54;102997.97;5099791;28;20067;-70
2023/05/03 03:21:38;;;;;;;12.85;3.38;;;;;;;5.41;91.33;103003.63;5085396;28;20026;-70
2023/05/03 03:24:03;;;;;;;7.25;3.50;;;;;;;5.40;91.17;103007.31;5099233;28;20034;-70
2023/05/03 03:26:29;;;;;;;9.57;3.17;;;;;;;5.37;91.26;103015.72;5098772;28;20028;-70
2023/05/03 03:28:54;;;;;;;7.95;3.45;;;;;;;5.32;91.07;103017.88;5075555;28;20131;-70
2023/05/03 03:31:21;;;;;;;8.55;3.45;;;;;;;5.28;91.67;103019.06;5099785;28;20028;-70
2023/05/03 03:33:48;;;;;;;7.75;3.28;;;;;;;5.30;90.85;103018.97;5104782;28;20047;-70
2023/05/03 03:36:13;;;;;;;16.77;4.40;;;;;;;5.30;91.05;103016.25;5097981;28;20113;-70
2023/05/03 03:38:40;;;;;;;8.90;3.97;;;;;;;5.24;91.70;103022.13;5097908;28;20467;-70
2023/05/03 03:41:06;;;;;;;13.48;4.07;;;;;;;5.19;91.86;103013.44;5094412;28;20526;-71
2023/05/03 03:43:32;;;;;;;18.80;4.63;;;;;;;5.18;92.11;103006.28;5065947;28;20418;-70
2023/05/03 03:45:58;;;;;;;11.20;3.85;;;;;;;5.17;92.76;103007.22;5099916;28;20024;-71
2023/05/03 03:48:23;;;;;;;8.73;3.72;;;;;;;5.14;92.64;103015.63;5077524;28;20086;-70
2023/05/03 03:50:49;;;;;;;8.05;4.32;;;;;;;5.10;92.88;103011.38;5096942;28;20020;-71
2023/05/03 03:53:14;;;;;;;12.88;3.70;;;;;;;5.09;93.26;103017.78;5078985;28;20020;-70
2023/05/03 03:55:40;;;;;;;11.57;4.18;;;;;;;5.06;92.81;103016.16;5096816;28;20110;-70
2023/05/03 03:58:05;;;;;;;13.68;3.50;;;;;;;5.05;92.79;103018.97;5080161;28;20027;-71
2023/05/03 04:00:32;;;;;;;6.82;3.35;;;;;;;5.06;93.12;103029.72;5091883;28;20039;-69
2023/05/03 04:02:57;;;;;;;11.05;3.80;;;;;;;5.02;93.00;103030.06;5101513;28;20119;-70
2023/05/03 04:05:23;;;;;;;12.27;3.65;;;;;;;5.00;93.17;103035.59;5096703;28;20115;-70
2023/05/03 04:07:48;;;;;;;9.40;3.38;;;;;;;5.02;92.83;103033.63;5079781;28;20494;-70
2023/05/03 04:10:14;;;;;;;12.75;3.55;;;;;;;4.95;92.65;103039.59;5098220;28;20438;-70
2023/05/03 04:12:39;;;;;;;12.00;3.58;;;;;;;4.90;93.59;103033.63;5080171;28;20031;-68
2023/05/03 04:15:06;;;;;;;9.18;3.28;;;;;;;4.89;93.39;103045.47;5093502;28;20111;-71
2023/05/03 04:17:33;;;;;;;7.20;3.20;;;;;;;4.85;93.94;103043.94;5081290;28;20044;-69
2023/05/03 04:20:00;;;;;;;9.38;3.45;;;;;;;4.84;94.12;103050.34;5100253;28;20462;-70
2023/05/03 04:22:26;;;;;;;11.23;4.20;;;;;;;4.85;94.07;103055.69;5099540;28;20150;-70
2023/05/03 04:24:53;;;;;;;9.57;3.80;;;;;;;4.84;93.88;103050.34;5096855;28;20478;-70
2023/05/03 04:27:18;;;;;;;8.05;3.33;;;;;;;4.87;95.32;103061.84;5078266;28;20031;-70
2023/05/03 04:29:44;;;;;;;9.85;4.20;;;;;;;4.84;94.62;103050.34;5098502;28;20057;-70
2023/05/03 04:32:10;;;;;;;7.22;3.65;;;;;;;4.81;94.89;103056.00;5097353;28;20034;-69
2023/05/03 04:34:35;;;;;;;12.35;3.42;;;;;;;4.81;95.10;103059.56;5081528;28;20301;-70
2023/05/03 04:37:01;;;;;;;13.55;3.75;;;;;;;4.80;94.73;103055.13;5093796;28;20028;-70
2023/05/03 04:39:26;;;;;;;10.18;3.80;;;;;;;4.81;95.25;103046.00;5090523;28;20028;-70
2023/05/03 04:41:51;;;;;;;7.75;4.43;;;;;;;4.83;95.64;103054.03;5076558;28;20023;-70
2023/05/03 04:44:17;;;;;;;10.55;3.50;;;;;;;4.81;94.74;103051.44;5072717;28;20032;-70
2023/05/03 04:46:43;;;;;;;5.95;3.50;;;;;;;4.84;94.68;103042.19;5101790;28;20057;-70
2023/05/03 04:49:08;;;;;;;11.77;4.07;;;;;;;4.86;95.39;103040.28;5093718;28;20059;-70
2023/05/03 04:51:33;;;;;;;10.32;3.65;;;;;;;4.90;94.36;103033.63;5101724;28;20019;-70
2023/05/03 04:53:59;;;;;;;8.88;3.85;;;;;;;4.94;94.90;103043.31;5078002;28;20597;-70
2023/05/03 04:56:25;;;;;;;9.77;3.55;;;;;;;4.95;95.36;103042.31;5099150;28;20070;-70
2023/05/03 04:58:51;;;;;;;8.13;3.92;;;;;;;5.00;94.96;103042.88;5099742;28;20028;-71
2023/05/03 05:01:17;;;;;;;7.88;3.70;;;;;;;5.01;94.76;103036.47;5091619;28;20085;-71
2023/05/03 05:03:43;;;;;;;7.57;3.50;;;;;;;5.14;94.73;103045.50;5099545;28;20074;-71
2023/05/03 05:06:11;;;;;;;9.70;3.83;;;;;;;5.17;94.19;103045.25;5095664;28;20340;-72
2023/05/03 05:08:36;;;;;;;7.22;3.55;;;;;;;5.22;93.79;103053.94;5098964;28;20035;-72
2023/05/03 05:11:04;;;;;;;10.48;3.20;;;;;;;5.28;94.56;103053.53;5080369;28;20479;-74
2023/05/03 05:14:04;;;;;;;7.22;3.95;;;;;;;5.35;93.54;103054.84;5092337;28;20104;-74
2023/05/03 05:16:29;;;;;;;14.75;4.10;;;;;;;5.46;92.38;103049.50;5092052;28;20028;-71
2023/05/03 05:18:54;;;;;;;11.13;4.28;;;;;;;5.52;93.01;103054.47;5096351;28;20042;-71
2023/05/03 05:21:20;;;;;;;11.32;3.38;;;;;;;5.53;91.28;103053.50;5099232;28;20028;-70
2023/05/03 05:23:46;;;;;;;10.60;3.42;;;;;;;5.65;90.95;103052.59;5098079;28;20440;-70
2023/05/03 05:26:11;;;;;;;9.35;3.92;;;;;;;5.68;91.21;103053.28;5082428;28;20031;-71
2023/05/03 05:28:36;;;;;;;14.25;3.28;;;;;;;5.81;91.34;103055.97;5096727;28;20055;-72
2023/05/03 05:31:02;;;;;;;10.40;3.80;;;;;;;5.83;90.35;103051.31;5090519;28;20545;-72
2023/05/03 05:33:27;;;;;;;8.02;3.50;;;;;;;5.92;90.18;103056.06;5094487;28;20513;-71
2023/05/03 05:35:53;;;;;;;8.55;4.28;;;;;;;6.04;90.14;103057.88;5091523;28;20054;-72
2023/05/03 05:38:18;;;;;;;9.57;3.88;;;;;;;6.13;88.65;103063.50;5101428;28;20051;-72
2023/05/03 05:40:43;;;;;;;11.60;3.22;;;;;;;6.19;88.17;103052.16;5096660;28;20076;-71
2023/05/03 05:43:09;;;;;;;6.97;3.15;;;;;;;6.29;87.74;103065.91;5077059;28;20055;-70
2023/05/03 05:45:35;;;;;;;10.00;3.75;;;;;;;6.39;86.36;103066.97;5096670;28;20028;-72
2023/05/03 05:48:00;;;;;;;5.50;2.90;;;;;;;6.38;86.50;103068.84;5064545;28;20309;-73
2023/05/03 05:50:25;;;;;;;11.10;3.40;;;;;;;6.53;86.04;103066.78;5101426;28;20069;-72
2023/05/03 05:52:51;;;;;;;7.68;3.67;;;;;;;6.56;86.24;103070.16;5080581;28;20034;-71
2023/05/03 05:55:17;;;;;;;7.97;3.17;;;;;;;6.64;86.08;103065.00;5099900;28;20036;-72
2023/05/03 05:57:43;;;;;;;9.07;3.47;;;;;;;6.70;84.79;103066.38;5091343;28;20024;-72
2023/05/03 06:00:13;;;;;;;10.68;3.13;;;;;;;6.84;84.91;103068.91;5095694;28;20134;-72
2023/05/03 06:02:39;;;;;;;9.10;2.95;;;;;;;6.78;82.94;103067.50;5094745;28;20084;-72
2023/05/03 06:05:05;;;;;;;10.80;3.50;;;;;;;6.85;83.54;103066.06;5091435;28;20020;-71
2023/05/03 06:07:30;;;;;;;10.95;3.33;;;;;;;7.04;83.11;103076.41;5094962;28;20395;-71
2023/05/03 06:09:55;;;;;;;5.13;3.03;;;;;;;7.02;82.28;103072.91;5072502;28;20027;-71
2023/05/03 06:12:21;;;;;;;6.25;3.20;;;;;;;7.00;81.30;103055.81;5094129;28;20111;-72
2023/05/03 06:14:46;;;;;;;6.45;3.17;;;;;;;7.19;81.75;103067.00;5078341;28;20356;-72
2023/05/03 06:17:12;;;;;;;7.65;3.30;;;;;;;7.23;81.49;103072.09;5097616;28;20054;-71
2023/05/03 06:19:38;;;;;;;6.25;3.22;;;;;;;7.42;81.49;103066.06;5098403;28;20467;-72
2023/05/03 06:22:03;;;;;;;14.00;3.08;;;;;;;7.74;80.54;103059.72;5083728;28;20028;-71
2023/05/03 06:24:31;;;;;;;14.52;3.63;;;;;;;9.12;75.14;103047.84;5099387;28;20039;-72
2023/05/03 06:26:57;;;;;;;15.73;3.45;;;;;;;10.44;70.08;103045.78;5098426;28;20468;-72
2023/05/03 06:29:23;;;;;;;9.57;3.08;;;;;;;11.30;66.45;103046.56;5092396;28;20019;-72
2023/05/03 06:31:48;;;;;;;11.13;2.97;;;;;;;11.92;65.84;103052.28;5101588;28;20502;-72
2023/05/03 06:34:18;;;;;;;5.60;2.40;;;;;;;12.36;63.03;103051.44;5100486;28;20467;-72
2023/05/03 06:36:44;;;;;;;10.80;3.00;;;;;;;12.95;60.85;103037.94;5080501;28;20027;-72
2023/05/03 06:39:10;;;;;;;9.60;3.20;;;;;;;12.85;60.02;103059.16;5084853;28;20047;-72
2023/05/03 06:41:35;;;;;;;8.67;2.50;;;;;;;12.85;59.18;103060.03;5100056;28;20035;-73
2023/05/03 06:44:02;;;;;;;18.90;2.93;;;;;;;13.45;58.39;103048.16;5100709;28;20032;-71
2023/05/03 06:46:28;;;;;;;11.13;2.90;;;;;;;13.86;59.14;103052.00;5099182;28;20536;-72
2023/05/03 06:48:57;;;;;;;14.63;2.97;;;;;;;13.54;54.89;103044.44;5073181;28;20027;-71
2023/05/03 06:51:27;;;;;;;5.03;2.35;;;;;;;13.49;57.55;103034.91;5087158;28;20032;-72
2023/05/03 06:53:56;;;;;;;5.85;1.95;;;;;;;13.44;56.67;103034.56;5065075;28;20024;-70
2023/05/03 06:56:22;;;;;;;6.53;2.15;;;;;;;13.88;56.97;103033.44;5096932;28;20032;-72
2023/05/03 06:58:48;;;;;;;12.07;2.90;;;;;;;13.98;55.05;103025.91;5080254;28;20037;-71
2023/05/03 07:01:14;;;;;;;12.02;2.70;;;;;;;14.09;57.85;103022.84;5095231;28;20408;-72
2023/05/03 07:03:40;;;;;;;10.43;1.90;;;;;;;14.18;55.16;103028.19;5095374;28;20032;-71
2023/05/03 07:06:05;;;;;;;5.33;1.87;;;;;;;14.12;55.29;103031.63;5097164;28;20518;-71
2023/05/03 07:08:31;;;;;;;5.03;2.17;;;;;;;14.31;54.75;103025.84;5097483;28;20074;-72
2023/05/03 07:10:56;;;;;;;8.83;1.80;;;;;;;14.37;53.73;103035.34;5096665;28;20126;-73
2023/05/03 07:13:31;;;;;;;3.77;1.83;;;;;;;14.83;53.78;103021.78;5098470;28;20020;-72
2023/05/03 07:15:56;;;;;;;4.97;1.73;;;;;;;14.95;53.17;103025.94;5091769;28;20035;-69
2023/05/03 07:18:22;;;;;;;7.90;1.50;;;;;;;15.09;50.83;103018.84;5094575;28;20028;-69
2023/05/03 07:20:47;;;;;;;6.30;2.27;;;;;;;14.11;49.74;103013.38;5094578;28;20035;-69
2023/05/03 07:23:14;;;;;;;8.30;1.90;;;;;;;14.43;52.34;103018.13;5076585;28;20024;-69
2023/05/03 07:25:40;;;;;;;;;;;;;;;14.50;52.19;103027.44;5099490;28;20023;-69
2023/05/03 07:28:06;;;;;;;8.65;1.80;;;;;;;14.14;51.61;103012.19;5098786;28;19915;-69
2023/05/03 07:30:31;;;;;;;5.93;1.50;;;;;;;13.97;52.25;103004.84;5097242;28;20054;-69
2023/05/03 07:32:56;;;;;;;9.10;2.33;;;;;;;13.92;51.38;103007.28;5088610;28;20183;-70
2023/05/03 07:35:22;;;;;;;5.80;2.00;;;;;;;14.04;53.12;102997.66;5095978;28;20024;-70
2023/05/03 07:37:47;;;;;;;11.87;2.43;;;;;;;13.51;53.36;102995.19;5100552;28;20024;-72
2023/05/03 07:40:13;;;;;;;6.10;1.93;;;;;;;13.13;53.69;102989.28;5085843;28;20071;-71
2023/05/03 07:42:39;;;;;;;4.77;1.70;;;;;;;13.54;54.25;102994.88;5102405;28;20027;-71
2023/05/03 07:45:05;;;;;;;4.97;1.53;;;;;;;14.11;53.31;102984.94;5096345;28;20039;-70
2023/05/03 07:47:31;;;;;;;4.25;1.80;;;;;;;13.78;54.18;102994.13;5098262;28;20103;-72
2023/05/03 07:49:57;;;;;;;4.03;1.58;;;;;;;13.28;52.98;102982.16;5100663;28;20066;-72
2023/05/03 07:52:22;;;;;;;4.90;2.10;;;;;;;13.05;53.67;102970.84;5099472;28;20028;-73
2023/05/03 07:54:47;;;;;;;10.33;2.43;;;;;;;13.23;55.09;102970.78;5102486;28;20455;-71
2023/05/03 07:57:15;;;;;;;12.33;2.00;;;;;;;13.03;53.89;102958.25;5088359;28;20027;-71
2023/05/03 07:59:41;;;;;;;5.85;1.70;;;;;;;13.39;55.07;102977.22;5085758;28;20510;-71
2023/05/03 08:02:06;;;;;;;6.13;2.00;;;;;;;13.07;54.55;102970.69;5090034;28;20390;-71
2023/05/03 08:04:32;;;;;;;5.03;2.27;;;;;;;13.21;53.66;102978.31;5100723;28;20284;-69
2023/05/03 08:07:01;;;;;;;10.97;2.10;;;;;;;12.92;55.32;102989.59;5101893;28;20161;-70
2023/05/03 08:09:27;;;;;;;3.97;1.75;;;;;;;12.40;55.54;103001.53;5080689;28;20181;-70
2023/05/03 08:11:54;;;;;;;5.90;1.85;;;;;;;12.42;56.02;103006.84;5083882;28;20020;-69
2023/05/03 08:14:20;;;;;;;5.38;1.92;;;;;;;12.32;55.61;102995.09;5087002;28;20389;-70
2023/05/03 08:16:45;;;;;;;10.00;2.30;;;;;;;12.47;56.37;103004.50;5099604;28;20111;-70
2023/05/03 08:19:10;;;;;;;3.83;2.57;;;;;;;12.21;55.76;102998.91;5082911;28;20030;-69
2023/05/03 08:21:36;;;;;;;6.93;2.40;;;;;;;12.23;56.15;102985.88;5101448;28;20028;-69
2023/05/03 08:24:04;;;;;;;4.63;1.83;;;;;;;12.40;56.41;102984.16;5099686;28;20467;-70
2023/05/03 08:26:30;;;;;;;5.72;2.00;;;;;;;12.58;55.71;102976.75;5096440;28;20043;-70
2023/05/03 08:28:56;;;;;;;9.70;1.83;;;;;;;12.42;57.15;102984.84;5097258;28;20028;-70
2023/05/03 08:31:21;;;;;;;10.77;1.93;;;;;;;12.58;54.94;102977.63;5080569;28;20039;-70
2023/05/03 08:33:46;;;;;;;5.07;1.77;;;;;;;12.89;54.87;102980.81;5089812;28;20031;-70
2023/05/03 08:36:12;;;;;;;16.87;2.43;;;;;;;12.80;54.92;102984.53;5103318;28;20058;-72
2023/05/03 08:38:40;;;;;;;11.20;3.03;;;;;;;12.84;54.11;102975.81;5103106;28;20356;-71
2023/05/03 08:41:13;;;;;;;5.30;1.60;;;;;;;13.04;54.06;102987.50;5096250;28;20046;-72
2023/05/03 08:43:43;;;;;;;6.13;2.58;;;;;;;12.84;54.33;102986.81;5090004;28;20544;-71
2023/05/03 08:46:11;;;;;;;7.18;2.13;;;;;;;13.00;54.32;102980.59;5073142;28;20756;-71
2023/05/03 08:48:36;;;;;;;3.20;1.73;;;;;;;13.09;53.58;102971.38;5096751;28;20547;-71
2023/05/03 08:51:04;;;;;;;8.20;2.17;;;;;;;13.03;53.22;102983.03;5076650;28;20032;-72
2023/05/03 08:53:29;;;;;;;7.35;1.95;;;;;;;13.20;53.70;102980.22;5095254;28;20529;-71
2023/05/03 08:55:55;;;;;;;5.13;2.27;;;;;;;13.29;52.86;102973.72;5091560;28;20350;-72
2023/05/03 08:58:21;;;;;;;8.33;2.43;;;;;;;13.37;53.25;102973.78;5087800;28;20185;-73
2023/05/03 09:00:46;;;;;;;8.50;2.47;;;;;;;13.87;52.81;102982.13;5069670;28;20101;-73
2023/05/03 09:03:12;;;;;;;3.90;2.50;;;;;;;13.65;52.16;102977.19;5100883;28;20051;-73
2023/05/03 09:05:42;;;;;;;8.60;2.40;;;;;;;13.65;51.85;102975.31;5093759;28;20391;-73
2023/05/03 09:08:11;;;;;;;6.60;2.50;;;;;;;13.54;51.57;102975.59;5092572;28;20096;-73
2023/05/03 09:10:38;;;;;;;7.95;2.42;;;;;;;13.44;51.96;102987.78;5101618;28;20023;-73
2023/05/03 09:13:05;;;;;;;6.57;2.50;;;;;;;13.61;51.58;102995.09;5094839;28;20091;-73
2023/05/03 09:15:31;;;;;;;6.22;2.95;;;;;;;13.85;53.02;102998.81;5075366;28;20048;-73
2023/05/03 09:18:11;;;;;;;8.33;2.50;;;;;;;13.71;52.17;102993.06;5078597;28;20444;-73
2023/05/03 09:20:38;;;;;;;9.20;2.22;;;;;;;13.84;52.11;102986.06;5075370;28;20035;-74
2023/05/03 09:23:06;;;;;;;5.53;2.60;;;;;;;13.82;51.90;103001.03;5079937;28;20040;-73
2023/05/03 09:25:48;;;;;;;8.02;2.45;;;;;;;13.88;51.13;102990.19;5097736;28;20487;-73
2023/05/03 09:28:14;;;;;;;8.40;2.90;;;;;;;14.04;50.58;102995.75;5093384;28;20028;-73
2023/05/03 09:30:40;;;;;;;;;;;;;;;14.38;49.05;102988.31;5074995;28;20032;-74
2023/05/03 09:33:07;;;;;;;5.63;2.50;;;;;;;14.36;49.97;102984.84;5094453;28;19998;-73
2023/05/03 09:35:33;;;;;;;4.07;2.40;;;;;;;14.84;50.42;102984.88;5092723;28;20024;-73
2023/05/03 09:37:59;;;;;;;6.87;2.40;;;;;;;15.03;49.55;102987.28;5088217;28;20036;-74
2023/05/03 09:40:25;;;;;;;11.73;2.90;;;;;;;14.93;48.93;102992.13;5095245;28;20093;-69
2023/05/03 09:43:10;;;;;;;6.07;3.15;;;;;;;14.05;49.95;103003.03;5096751;28;20292;-70
2023/05/03 09:45:37;;;;;;;16.15;2.72;;;;;;;13.85;50.92;102987.78;5095310;28;20040;-70
2023/05/03 09:48:04;;;;;;;7.80;2.40;;;;;;;14.22;50.27;102988.28;5079871;28;20111;-70
2023/05/03 09:50:36;;;;;;;9.90;2.90;;;;;;;14.35;50.15;102996.06;5090641;28;20521;-71
2023/05/03 09:53:04;;;;;;;17.55;2.95;;;;;;;14.70;50.50;102984.72;5099348;28;20542;-69
2023/05/03 09:55:34;;;;;;;7.97;3.50;;;;;;;15.05;50.01;102976.09;5099119;28;20055;-70
2023/05/03 09:58:06;;;;;;;10.10;3.15;;;;;;;14.66;49.47;102980.56;5100823;28;20458;-70
2023/05/03 10:00:36;;;;;;;9.13;3.50;;;;;;;14.68;48.81;102981.28;5071765;28;20110;-70
2023/05/03 10:03:07;;;;;;;8.60;3.53;;;;;;;14.69;48.46;102988.50;5081745;28;20487;-70
2023/05/03 10:05:39;;;;;;;7.47;3.30;;;;;;;14.85;48.57;102983.88;5094901;28;20397;-69
2023/05/03 10:08:06;;;;;;;11.20;3.47;;;;;;;15.11;48.28;102989.19;5092310;28;20039;-70
2023/05/03 10:10:33;;;;;;;11.68;3.33;;;;;;;15.35;48.90;102983.63;5084472;28;20478;-70
2023/05/03 10:13:01;;;;;;;8.30;3.22;;;;;;;15.58;49.16;102979.09;5079461;28;20032;-70
2023/05/03 10:15:29;;;;;;;8.30;3.38;;;;;;;15.86;48.84;102977.59;5101317;28;20107;-71
2023/05/03 10:17:56;;;;;;;9.57;3.22;;;;;;;16.06;47.69;102992.72;5100427;28;20111;-70
2023/05/03 10:20:43;;;;;;;13.02;3.22;;;;;;;15.22;46.21;102989.66;5094643;28;20111;-70
2023/05/03 10:23:10;;;;;;;8.93;3.03;;;;;;;15.02;46.76;102976.41;5094336;28;20030;-70
2023/05/03 10:25:37;;;;;;;8.27;3.30;;;;;;;15.01;48.97;102981.09;5100244;28;20121;-70
2023/05/03 10:28:05;;;;;;;4.40;3.22;;;;;;;15.42;47.41;102976.38;5094587;28;20397;-70
2023/05/03 10:30:33;;;;;;;6.10;3.15;;;;;;;15.54;46.85;102975.81;5083470;28;20035;-70
2023/05/03 10:33:10;;;;;;;11.18;3.08;;;;;;;15.42;47.27;102979.16;5100794;28;20361;-71
2023/05/03 10:35:38;;;;;;;7.50;3.60;;;;;;;15.74;46.00;102960.53;5100127;28;20031;-70
2023/05/03 10:38:21;;;;;;;8.10;3.70;;;;;;;15.89;47.20;102966.16;5103308;28;20447;-72
2023/05/03 10:40:47;;;;;;;7.75;3.75;;;;;;;16.11;46.82;102962.63;5090999;28;20028;-72
2023/05/03 10:43:30;;;;;;;13.20;4.03;;;;;;;15.86;45.43;102964.63;5094841;28;20028;-72
2023/05/03 10:46:03;;;;;;;7.93;3.60;;;;;;;15.47;45.46;102960.16;5087663;28;20024;-72
2023/05/03 10:48:30;;;;;;;10.65;3.70;;;;;;;16.03;46.33;102968.19;5100428;28;20024;-72
2023/05/03 10:50:56;;;;;;;9.70;3.20;;;;;;;16.09;45.33;102959.16;5092198;28;20059;-73
2023/05/03 10:53:32;;;;;;;6.28;3.20;;;;;;;16.20;46.65;102964.28;5095549;28;20048;-72
2023/05/03 10:56:11;;;;;;;5.00;3.30;;;;;;;16.43;45.82;102946.69;5088644;28;20098;-72
2023/05/03 10:58:42;;;;;;;10.80;3.67;;;;;;;16.33;46.04;102956.25;5096776;28;20115;-72
2023/05/03 11:01:09;;;;;;;4.65;3.33;;;;;;;16.23;44.62;102953.69;5089338;28;20020;-72
2023/05/03 11:04:20;;;;;;;6.63;3.15;;;;;;;16.60;46.34;102944.66;5079904;28;20034;-72
2023/05/03 11:06:48;;;;;;;6.95;3.15;;;;;;;16.20;45.19;102947.69;5045787;28;20512;-73
2023/05/03 11:09:14;;;;;;;7.97;3.83;;;;;;;15.82;46.43;102937.53;5082568;28;20033;-73
2023/05/03 11:11:40;;;;;;;16.15;3.58;;;;;;;15.86;46.93;102939.75;5076371;28;20107;-73
2023/05/03 11:14:07;;;;;;;9.32;3.35;;;;;;;15.99;45.86;102931.75;5072853;28;20472;-72
2023/05/03 11:16:33;;;;;;;7.47;3.40;;;;;;;16.40;45.29;102926.81;5071987;28;20020;-73
2023/05/03 11:19:00;;;;;;;8.70;3.40;;;;;;;16.48;45.76;102924.00;5073592;28;20035;-73
2023/05/03 11:21:26;;;;;;;;;;;;;;;16.53;46.32;102921.53;5072256;28;20032;-71
2023/05/03 11:23:52;;;;;;;11.13;4.30;;;;;;;16.78;45.58;102904.53;5065695;28;20310;-71
2023/05/03 11:26:20;;;;;;;11.90;4.03;;;;;;;16.76;44.30;102912.16;5078006;28;20033;-71
2023/05/03 11:28:45;;;;;;;8.30;3.38;;;;;;;17.12;44.11;102915.09;5083617;28;20059;-71